Observation data for Gail on 09/10/2017      Previous  Date       Current Mesonet Observations  Soil Data  Daily Summary Page  Observations in Plain Language
KGGS 100500Z 13004KT 17/09 A3019 RMK A01 T01740085  RH  058%=      5-min Rain = 0
KGGS 100505Z 12004KT 17/08 A3019 RMK A01 T01700083  RH  058%=      5-min Rain = 0
KGGS 100510Z 12003KT 17/08 A3019 RMK A01 T01650081  RH  059%=      5-min Rain = 0
KGGS 100515Z 13002KT 16/09 A3019 RMK A01 T01620085  RH  062%=      5-min Rain = 0
KGGS 100520Z 15002KT 16/09 A3019 RMK A01 T01630087  RH  062%=      5-min Rain = 0
KGGS 100525Z 15003KT 17/09 A3019 RMK A01 T01680086  RH  060%=      5-min Rain = 0
KGGS 100530Z 15003KT 17/08 A3019 RMK A01 T01650081  RH  059%=      5-min Rain = 0
KGGS 100535Z 13004KT 16/08 A3019 RMK A01 T01590084  RH  063%=      5-min Rain = 0
KGGS 100540Z 14005KT 16/09 A3019 RMK A01 T01640087  RH  062%=      5-min Rain = 0
KGGS 100545Z 13006KT 17/09 A3019 RMK A01 T01700086  RH  059%=      5-min Rain = 0
KGGS 100550Z 14006KT 17/09 A3019 RMK A01 T01690086  RH  060%=      5-min Rain = 0
KGGS 100555Z 14006KT 17/09 A3019 RMK A01 T01680087  RH  060%=      5-min Rain = 0
KGGS 100600Z 14005KT 17/09 A3019 RMK A01 T01670086  RH  060%=      5-min Rain = 0
KGGS 100605Z 14004KT 17/09 A3019 RMK A01 T01650085  RH  061%=      5-min Rain = 0
KGGS 100610Z 14004KT 16/08 A3019 RMK A01 T01620082  RH  061%=      5-min Rain = 0
KGGS 100615Z 14004KT 16/08 A3019 RMK A01 T01570082  RH  063%=      5-min Rain = 0
KGGS 100620Z 13003KT 15/08 A3019 RMK A01 T01530083  RH  065%=      5-min Rain = 0
KGGS 100625Z 13002KT 15/08 A3019 RMK A01 T01500083  RH  066%=      5-min Rain = 0
KGGS 100630Z 13001KT 15/09 A3019 RMK A01 T01510086  RH  067%=      5-min Rain = 0
KGGS 100635Z 00000KT 15/09 A3019 RMK A01 T01500086  RH  067%=      5-min Rain = 0
KGGS 100640Z 09001KT 15/09 A3019 RMK A01 T01510086  RH  067%=      5-min Rain = 0
KGGS 100645Z 11002KT 15/09 A3019 RMK A01 T01490085  RH  067%=      5-min Rain = 0
KGGS 100650Z 11003KT 15/08 A302 RMK A01 T01450083  RH  068%=      5-min Rain = 0
KGGS 100655Z 11004KT 14/08 A302 RMK A01 T01400081  RH  070%=      5-min Rain = 0
KGGS 100700Z 11003KT 14/09 A302 RMK A01 T01420086  RH  071%=      5-min Rain = 0
KGGS 100705Z 11003KT 15/09 A302 RMK A01 T01480087  RH  069%=      5-min Rain = 0
KGGS 100710Z 12003KT 15/09 A302 RMK A01 T01520088  RH  067%=      5-min Rain = 0
KGGS 100715Z 12003KT 16/09 A302 RMK A01 T01550088  RH  066%=      5-min Rain = 0
KGGS 100720Z 12003KT 15/08 A302 RMK A01 T01540083  RH  065%=      5-min Rain = 0
KGGS 100725Z 10002KT 15/08 A302 RMK A01 T01490082  RH  066%=      5-min Rain = 0
KGGS 100730Z 10002KT 15/09 A302 RMK A01 T01480087  RH  069%=      5-min Rain = 0
KGGS 100735Z 10002KT 15/09 A302 RMK A01 T01490088  RH  069%=      5-min Rain = 0
KGGS 100740Z 11002KT 15/09 A302 RMK A01 T01510089  RH  068%=      5-min Rain = 0
KGGS 100745Z 11002KT 15/09 A302 RMK A01 T01510089  RH  068%=      5-min Rain = 0
KGGS 100750Z 11002KT 15/09 A302 RMK A01 T01500090  RH  069%=      5-min Rain = 0
KGGS 100755Z 10003KT 15/09 A302 RMK A01 T01490089  RH  070%=      5-min Rain = 0
KGGS 100800Z 09003KT 15/09 A302 RMK A01 T01500090  RH  070%=      5-min Rain = 0
KGGS 100805Z 09003KT 15/09 A302 RMK A01 T01510092  RH  070%=      5-min Rain = 0
KGGS 100810Z 10004KT 15/09 A302 RMK A01 T01520092  RH  069%=      5-min Rain = 0
KGGS 100815Z 11004KT 15/09 A302 RMK A01 T01520092  RH  069%=      5-min Rain = 0
KGGS 100820Z 11004KT 15/09 A302 RMK A01 T01510091  RH  069%=      5-min Rain = 0
KGGS 100825Z 12004KT 15/09 A302 RMK A01 T01490091  RH  070%=      5-min Rain = 0
KGGS 100830Z 12004KT 15/09 A302 RMK A01 T01480091  RH  071%=      5-min Rain = 0
KGGS 100835Z 11004KT 15/09 A302 RMK A01 T01460091  RH  071%=      5-min Rain = 0
KGGS 100840Z 12004KT 14/09 A302 RMK A01 T01440091  RH  073%=      5-min Rain = 0
KGGS 100845Z 11003KT 14/09 A302 RMK A01 T01420091  RH  073%=      5-min Rain = 0
KGGS 100850Z 10003KT 14/09 A302 RMK A01 T01410091  RH  074%=      5-min Rain = 0
KGGS 100855Z 09003KT 14/09 A302 RMK A01 T01400091  RH  074%=      5-min Rain = 0
KGGS 100900Z 08003KT 14/09 A302 RMK A01 T01370089  RH  075%=      5-min Rain = 0
KGGS 100905Z 07004KT 14/09 A302 RMK A01 T01370091  RH  076%=      5-min Rain = 0
KGGS 100910Z 07004KT 14/09 A302 RMK A01 T01370091  RH  076%=      5-min Rain = 0
KGGS 100915Z 06001KT 14/09 A302 RMK A01 T01370089  RH  075%=      5-min Rain = 0
KGGS 100920Z 07001KT 14/09 A302 RMK A01 T01350087  RH  075%=      5-min Rain = 0
KGGS 100925Z 03000KT 13/09 A302 RMK A01 T01300086  RH  077%=      5-min Rain = 0
KGGS 100930Z 35001KT 13/09 A302 RMK A01 T01300087  RH  077%=      5-min Rain = 0
KGGS 100935Z 35001KT 13/09 A302 RMK A01 T01320087  RH  077%=      5-min Rain = 0
KGGS 100940Z 35002KT 13/09 A302 RMK A01 T01330088  RH  076%=      5-min Rain = 0
KGGS 100945Z 34002KT 14/09 A302 RMK A01 T01350088  RH  076%=      5-min Rain = 0
KGGS 100950Z 33002KT 13/09 A302 RMK A01 T01340087  RH  075%=      5-min Rain = 0
KGGS 100955Z 33001KT 13/08 A302 RMK A01 T01310084  RH  075%=      5-min Rain = 0
KGGS 101000Z 33001KT 13/08 A302 RMK A01 T01280080  RH  074%=      5-min Rain = 0
KGGS 101005Z 33001KT 13/08 A302 RMK A01 T01250079  RH  076%=      5-min Rain = 0
KGGS 101010Z 33002KT 12/08 A302 RMK A01 T01240082  RH  078%=      5-min Rain = 0
KGGS 101015Z 33002KT 13/09 A302 RMK A01 T01250086  RH  080%=      5-min Rain = 0
KGGS 101020Z 33002KT 13/09 A302 RMK A01 T01290089  RH  079%=      5-min Rain = 0
KGGS 101025Z 33002KT 13/09 A302 RMK A01 T01320090  RH  078%=      5-min Rain = 0
KGGS 101030Z 32002KT 13/09 A302 RMK A01 T01320089  RH  077%=      5-min Rain = 0
KGGS 101035Z 31002KT 13/09 A3021 RMK A01 T01320089  RH  078%=      5-min Rain = 0
KGGS 101040Z 32001KT 13/09 A3021 RMK A01 T01330089  RH  077%=      5-min Rain = 0
KGGS 101045Z 34001KT 13/09 A3021 RMK A01 T01300085  RH  077%=      5-min Rain = 0
KGGS 101050Z 35001KT 13/08 A3021 RMK A01 T01250081  RH  077%=      5-min Rain = 0
KGGS 101055Z 00002KT 12/08 A3021 RMK A01 T01220082  RH  079%=      5-min Rain = 0
KGGS 101100Z 33002KT 12/09 A3021 RMK A01 T01230086  RH  081%=      5-min Rain = 0
KGGS 101105Z 32002KT 13/09 A3021 RMK A01 T01250088  RH  080%=      5-min Rain = 0
KGGS 101110Z 32002KT 13/09 A3022 RMK A01 T01260088  RH  080%=      5-min Rain = 0
KGGS 101115Z 32001KT 13/09 A3022 RMK A01 T01300089  RH  079%=      5-min Rain = 0
KGGS 101120Z 32001KT 13/09 A3022 RMK A01 T01330089  RH  077%=      5-min Rain = 0
KGGS 101125Z 32001KT 14/09 A3022 RMK A01 T01350089  RH  076%=      5-min Rain = 0
KGGS 101130Z 32002KT 14/09 A3022 RMK A01 T01350089  RH  076%=      5-min Rain = 0
KGGS 101135Z 32002KT 13/09 A3022 RMK A01 T01330088  RH  076%=      5-min Rain = 0
KGGS 101140Z 32002KT 13/09 A3022 RMK A01 T01330089  RH  077%=      5-min Rain = 0
KGGS 101145Z 32003KT 13/09 A3022 RMK A01 T01330089  RH  077%=      5-min Rain = 0
KGGS 101150Z 32003KT 13/09 A3022 RMK A01 T01330089  RH  077%=      5-min Rain = 0
KGGS 101155Z 32003KT 13/09 A3022 RMK A01 T01310089  RH  078%=      5-min Rain = 0
KGGS 101200Z 32002KT 13/09 A3022 RMK A01 T01300088  RH  078%=      5-min Rain = 0
KGGS 101205Z 32003KT 13/09 A3022 RMK A01 T01270088  RH  079%=      5-min Rain = 0
KGGS 101210Z 31002KT 12/09 A3022 RMK A01 T01240087  RH  080%=      5-min Rain = 0
KGGS 101215Z 32002KT 13/09 A3022 RMK A01 T01260088  RH  080%=      5-min Rain = 0
KGGS 101220Z 32002KT 13/09 A3022 RMK A01 T01250087  RH  080%=      5-min Rain = 0
KGGS 101225Z 32003KT 12/09 A3022 RMK A01 T01220086  RH  081%=      5-min Rain = 0
KGGS 101230Z 32003KT 12/09 A3022 RMK A01 T01220087  RH  082%=      5-min Rain = 0
KGGS 101235Z 32003KT 12/09 A3023 RMK A01 T01200086  RH  082%=      5-min Rain = 0
KGGS 101240Z 32003KT 12/09 A3023 RMK A01 T01180085  RH  083%=      5-min Rain = 0
KGGS 101245Z 32003KT 12/09 A3023 RMK A01 T01180086  RH  083%=      5-min Rain = 0
KGGS 101250Z 32002KT 12/09 A3023 RMK A01 T01190087  RH  083%=      5-min Rain = 0
KGGS 101255Z 32002KT 12/09 A3023 RMK A01 T01200087  RH  083%=      5-min Rain = 0
KGGS 101300Z 31003KT 12/09 A3024 RMK A01 T01210088  RH  083%=      5-min Rain = 0
KGGS 101305Z 32003KT 12/09 A3024 RMK A01 T01230091  RH  083%=      5-min Rain = 0
KGGS 101310Z 32003KT 13/09 A3024 RMK A01 T01270094  RH  083%=      5-min Rain = 0
KGGS 101315Z 31003KT 13/10 A3024 RMK A01 T01320096  RH  082%=      5-min Rain = 0
KGGS 101320Z 31003KT 14/10 A3024 RMK A01 T01360098  RH  080%=      5-min Rain = 0
KGGS 101325Z 31003KT 14/10 A3024 RMK A01 T01410100  RH  079%=      5-min Rain = 0
KGGS 101330Z 31002KT 15/10 A3024 RMK A01 T01460103  RH  078%=      5-min Rain = 0
KGGS 101335Z 31001KT 15/10 A3024 RMK A01 T01500103  RH  076%=      5-min Rain = 0
KGGS 101340Z 31001KT 16/11 A3024 RMK A01 T01550105  RH  075%=      5-min Rain = 0
KGGS 101345Z 34002KT 16/10 A3025 RMK A01 T01590102  RH  071%=      5-min Rain = 0
KGGS 101350Z 01001KT 17/10 A3025 RMK A01 T01660101  RH  068%=      5-min Rain = 0
KGGS 101355Z 02001KT 17/10 A3025 RMK A01 T01710098  RH  064%=      5-min Rain = 0
KGGS 101400Z 04002KT 17/10 A3025 RMK A01 T01740099  RH  063%=      5-min Rain = 0
KGGS 101405Z 04002KT 18/10 A3025 RMK A01 T01780101  RH  062%=      5-min Rain = 0
KGGS 101410Z 06002KT 18/10 A3025 RMK A01 T01800100  RH  061%=      5-min Rain = 0
KGGS 101415Z 07002KT 19/10 A3025 RMK A01 T01860099  RH  059%=      5-min Rain = 0
KGGS 101420Z 08004KT 19/10 A3025 RMK A01 T01870098  RH  058%=      5-min Rain = 0
KGGS 101425Z 08002KT 19/10 A3025 RMK A01 T01930099  RH  056%=      5-min Rain = 0
KGGS 101430Z 10004KT 19/10 A3026 RMK A01 T01920098  RH  056%=      5-min Rain = 0
KGGS 101435Z 10003KT 20/10 A3026 RMK A01 T01950099  RH  056%=      5-min Rain = 0
KGGS 101440Z 09004KT 20/10 A3026 RMK A01 T01990100  RH  055%=      5-min Rain = 0
KGGS 101445Z 10005KT 20/10 A3026 RMK A01 T02000099  RH  054%=      5-min Rain = 0
KGGS 101450Z 11005KT 20/10 A3026 RMK A01 T02030100  RH  053%=      5-min Rain = 0
KGGS 101455Z 13005KT 21/10 A3026 RMK A01 T02090100  RH  051%=      5-min Rain = 0
KGGS 101500Z 11004KT 21/10 A3027 RMK A01 T02120100  RH  050%=      5-min Rain = 0
KGGS 101505Z 11004KT 21/10 A3027 RMK A01 T02120099  RH  050%=      5-min Rain = 0
KGGS 101510Z 12005KT 22/10 A3027 RMK A01 T02170100  RH  049%=      5-min Rain = 0
KGGS 101515Z 12004KT 22/10 A3027 RMK A01 T02170100  RH  049%=      5-min Rain = 0
KGGS 101520Z 12005KT 22/10 A3027 RMK A01 T02180099  RH  048%=      5-min Rain = 0
KGGS 101525Z 12005KT 22/10 A3027 RMK A01 T02210099  RH  047%=      5-min Rain = 0
KGGS 101530Z 12004KT 22/10 A3027 RMK A01 T02220099  RH  047%=      5-min Rain = 0
KGGS 101535Z 13005G10KT 23/10 A3027 RMK A01 T02250100  RH  047%=      5-min Rain = 0
KGGS 101540Z 15005KT 23/10 A3027 RMK A01 T02270099  RH  046%=      5-min Rain = 0
KGGS 101545Z 14007KT 23/10 A3026 RMK A01 T02310100  RH  045%=      5-min Rain = 0
KGGS 101550Z 16007KT 23/10 A3026 RMK A01 T02330101  RH  045%=      5-min Rain = 0
KGGS 101555Z 17006G11KT 24/10 A3026 RMK A01 T02350101  RH  044%=      5-min Rain = 0
KGGS 101600Z 16007G12KT 24/10 A3026 RMK A01 T02380101  RH  043%=      5-min Rain = 0
KGGS 101605Z 15005KT 24/10 A3026 RMK A01 T02370101  RH  044%=      5-min Rain = 0
KGGS 101610Z 14006G11KT 24/10 A3026 RMK A01 T02380102  RH  044%=      5-min Rain = 0
KGGS 101615Z 15008KT 24/10 A3026 RMK A01 T02430100  RH  042%=      5-min Rain = 0
KGGS 101620Z 17005KT 24/10 A3026 RMK A01 T02420100  RH  042%=      5-min Rain = 0
KGGS 101625Z 15007KT 25/10 A3026 RMK A01 T02450099  RH  041%=      5-min Rain = 0
KGGS 101630Z 15004G9KT 24/10 A3026 RMK A01 T02440098  RH  041%=      5-min Rain = 0
KGGS 101635Z 16006G11KT 25/10 A3026 RMK A01 T02480099  RH  040%=      5-min Rain = 0
KGGS 101640Z 15006KT 24/10 A3026 RMK A01 T02440096  RH  040%=      5-min Rain = 0
KGGS 101645Z 16004KT 25/10 A3025 RMK A01 T02460097  RH  040%=      5-min Rain = 0
KGGS 101650Z 15004G9KT 25/10 A3025 RMK A01 T02500098  RH  040%=      5-min Rain = 0
KGGS 101655Z 16005KT 25/10 A3025 RMK A01 T02510097  RH  039%=      5-min Rain = 0
KGGS 101700Z 12003KT 25/10 A3025 RMK A01 T02470096  RH  040%=      5-min Rain = 0
KGGS 101705Z 17004KT 26/10 A3025 RMK A01 T02560100  RH  038%=      5-min Rain = 0
KGGS 101710Z 16006G11KT 26/10 A3025 RMK A01 T02560097  RH  038%=      5-min Rain = 0
KGGS 101715Z 13003KT 26/10 A3025 RMK A01 T02560097  RH  038%=      5-min Rain = 0
KGGS 101720Z 08004KT 25/10 A3025 RMK A01 T02520098  RH  039%=      5-min Rain = 0
KGGS 101725Z 12004G9KT 25/10 A3025 RMK A01 T02540098  RH  038%=      5-min Rain = 0
KGGS 101730Z 10006KT 26/10 A3025 RMK A01 T02560096  RH  038%=      5-min Rain = 0
KGGS 101735Z 06004KT 25/09 A3025 RMK A01 T02540093  RH  037%=      5-min Rain = 0
KGGS 101740Z 11006G11KT 26/10 A3024 RMK A01 T02580096  RH  037%=      5-min Rain = 0
KGGS 101745Z 13007KT 26/10 A3024 RMK A01 T02630097  RH  036%=      5-min Rain = 0
KGGS 101750Z 15005G10KT 26/10 A3024 RMK A01 T02610097  RH  037%=      5-min Rain = 0
KGGS 101755Z 14004KT 27/10 A3024 RMK A01 T02670095  RH  035%=      5-min Rain = 0
KGGS 101800Z 09005KT 26/09 A3024 RMK A01 T02640094  RH  035%=      5-min Rain = 0
KGGS 101805Z 10004G9KT 26/09 A3024 RMK A01 T02630094  RH  036%=      5-min Rain = 0
KGGS 101810Z 12005G10KT 26/09 A3024 RMK A01 T02640093  RH  035%=      5-min Rain = 0
KGGS 101815Z 16004KT 27/09 A3023 RMK A01 T02670094  RH  035%=      5-min Rain = 0
KGGS 101820Z 14006KT 27/10 A3023 RMK A01 T02680096  RH  035%=      5-min Rain = 0
KGGS 101825Z 12006KT 26/09 A3023 RMK A01 T02620094  RH  036%=      5-min Rain = 0
KGGS 101830Z 12003KT 27/10 A3023 RMK A01 T02680095  RH  035%=      5-min Rain = 0
KGGS 101835Z 13004G9KT 27/09 A3023 RMK A01 T02680092  RH  034%=      5-min Rain = 0
KGGS 101840Z 16006KT 27/09 A3022 RMK A01 T02700091  RH  034%=      5-min Rain = 0
KGGS 101845Z 14005G11KT 28/09 A3022 RMK A01 T02760094  RH  033%=      5-min Rain = 0
KGGS 101850Z 18003KT 28/10 A3022 RMK A01 T02780095  RH  033%=      5-min Rain = 0
KGGS 101855Z 11006G11KT 28/09 A3022 RMK A01 T02770094  RH  033%=      5-min Rain = 0
KGGS 101900Z 10006G11KT 28/09 A3022 RMK A01 T02760092  RH  033%=      5-min Rain = 0
KGGS 101905Z 08004KT 27/09 A3022 RMK A01 T02720090  RH  033%=      5-min Rain = 0
KGGS 101910Z 10005G12KT 28/09 A3021 RMK A01 T02750093  RH  033%=      5-min Rain = 0
KGGS 101915Z 15007KT 28/09 A3021 RMK A01 T02830091  RH  031%=      5-min Rain = 0
KGGS 101920Z 16007KT 29/09 A3021 RMK A01 T02850093  RH  031%=      5-min Rain = 0
KGGS 101925Z 16006G13KT 28/09 A3021 RMK A01 T02810092  RH  032%=      5-min Rain = 0
KGGS 101930Z 14007KT 28/09 A302 RMK A01 T02810090  RH  031%=      5-min Rain = 0
KGGS 101935Z 16007KT 29/09 A302 RMK A01 T02860089  RH  030%=      5-min Rain = 0
KGGS 101940Z 15007KT 29/09 A302 RMK A01 T02850086  RH  030%=      5-min Rain = 0
KGGS 101945Z 12005KT 29/08 A302 RMK A01 T02890084  RH  028%=      5-min Rain = 0
KGGS 101950Z 09003G8KT 28/09 A302 RMK A01 T02830088  RH  030%=      5-min Rain = 0
KGGS 101955Z 11005G10KT 28/09 A302 RMK A01 T02820087  RH  030%=      5-min Rain = 0
KGGS 102000Z 16006G12KT 29/09 A3019 RMK A01 T02900090  RH  029%=      5-min Rain = 0
KGGS 102005Z 18005G15KT 29/09 A3019 RMK A01 T02870088  RH  030%=      5-min Rain = 0
KGGS 102010Z 18004KT 29/09 A3019 RMK A01 T02870087  RH  029%=      5-min Rain = 0
KGGS 102015Z 16006KT 30/09 A3019 RMK A01 T02950088  RH  028%=      5-min Rain = 0
KGGS 102020Z 14004G9KT 30/09 A3019 RMK A01 T02990088  RH  028%=      5-min Rain = 0
KGGS 102025Z 14006KT 29/09 A3018 RMK A01 T02910087  RH  029%=      5-min Rain = 0
KGGS 102030Z 12003KT 29/09 A3018 RMK A01 T02910086  RH  029%=      5-min Rain = 0
KGGS 102035Z 11007KT 29/09 A3018 RMK A01 T02920087  RH  029%=      5-min Rain = 0
KGGS 102040Z 14006KT 29/09 A3018 RMK A01 T02940087  RH  028%=      5-min Rain = 0
KGGS 102045Z 13005KT 29/09 A3018 RMK A01 T02880086  RH  029%=      5-min Rain = 0
KGGS 102050Z 12002KT 29/09 A3017 RMK A01 T02860086  RH  029%=      5-min Rain = 0
KGGS 102055Z 11005G10KT 29/09 A3017 RMK A01 T02890089  RH  029%=      5-min Rain = 0
KGGS 102100Z 14005G11KT 30/09 A3017 RMK A01 T02950089  RH  029%=      5-min Rain = 0
KGGS 102105Z 11007G12KT 30/09 A3017 RMK A01 T02950089  RH  029%=      5-min Rain = 0
KGGS 102110Z 15003KT 29/09 A3017 RMK A01 T02870087  RH  029%=      5-min Rain = 0
KGGS 102115Z 14003G8KT 29/09 A3016 RMK A01 T02930088  RH  029%=      5-min Rain = 0
KGGS 102120Z 16005KT 30/09 A3016 RMK A01 T02990087  RH  027%=      5-min Rain = 0
KGGS 102125Z 11004G9KT 30/08 A3016 RMK A01 T02960083  RH  027%=      5-min Rain = 0
KGGS 102130Z 07004KT 30/08 A3016 RMK A01 T02950080  RH  027%=      5-min Rain = 0
KGGS 102135Z 07005KT 30/08 A3016 RMK A01 T02960077  RH  026%=      5-min Rain = 0
KGGS 102140Z 09005KT 30/08 A3016 RMK A01 T02970078  RH  026%=      5-min Rain = 0
KGGS 102145Z 07005KT 30/07 A3016 RMK A01 T02950074  RH  026%=      5-min Rain = 0
KGGS 102150Z 07006KT 30/08 A3016 RMK A01 T02950075  RH  026%=      5-min Rain = 0
KGGS 102155Z 07006G11KT 30/08 A3015 RMK A01 T02960078  RH  026%=      5-min Rain = 0
KGGS 102200Z 11004KT 30/08 A3015 RMK A01 T02980078  RH  026%=      5-min Rain = 0
KGGS 102205Z 12005KT 30/08 A3015 RMK A01 T02960076  RH  026%=      5-min Rain = 0
KGGS 102210Z 10008KT 30/07 A3015 RMK A01 T02960074  RH  025%=      5-min Rain = 0
KGGS 102215Z 10003KT 29/07 A3015 RMK A01 T02940074  RH  026%=      5-min Rain = 0
KGGS 102220Z 12006KT 30/07 A3015 RMK A01 T02970073  RH  025%=      5-min Rain = 0
KGGS 102225Z 13007KT 30/08 A3015 RMK A01 T02990080  RH  026%=      5-min Rain = 0
KGGS 102230Z 15003KT 30/08 A3015 RMK A01 T03010079  RH  026%=      5-min Rain = 0
KGGS 102235Z 06005KT 30/08 A3015 RMK A01 T02970080  RH  026%=      5-min Rain = 0
KGGS 102240Z 08005G10KT 30/08 A3015 RMK A01 T02970080  RH  026%=      5-min Rain = 0
KGGS 102245Z 12006KT 30/08 A3015 RMK A01 T02970080  RH  026%=      5-min Rain = 0
KGGS 102250Z 15004KT 30/08 A3015 RMK A01 T03000079  RH  026%=      5-min Rain = 0
KGGS 102255Z 09006KT 30/08 A3015 RMK A01 T02950077  RH  026%=      5-min Rain = 0
KGGS 102300Z 10006KT 29/08 A3015 RMK A01 T02940078  RH  026%=      5-min Rain = 0
KGGS 102305Z 11005KT 30/08 A3015 RMK A01 T02950079  RH  026%=      5-min Rain = 0
KGGS 102310Z 10006KT 29/07 A3015 RMK A01 T02920072  RH  026%=      5-min Rain = 0
KGGS 102315Z 10005KT 29/07 A3015 RMK A01 T02910074  RH  026%=      5-min Rain = 0
KGGS 102320Z 14005KT 29/08 A3015 RMK A01 T02940078  RH  027%=      5-min Rain = 0
KGGS 102325Z 10007KT 29/08 A3015 RMK A01 T02930082  RH  027%=      5-min Rain = 0
KGGS 102330Z 09006KT 29/08 A3015 RMK A01 T02910080  RH  027%=      5-min Rain = 0
KGGS 102335Z 09005KT 29/08 A3015 RMK A01 T02900081  RH  028%=      5-min Rain = 0
KGGS 102340Z 10006KT 29/08 A3015 RMK A01 T02890081  RH  028%=      5-min Rain = 0
KGGS 102345Z 09005KT 29/08 A3015 RMK A01 T02880081  RH  028%=      5-min Rain = 0
KGGS 102350Z 09006KT 29/08 A3015 RMK A01 T02870082  RH  028%=      5-min Rain = 0
KGGS 102355Z 09005KT 29/09 A3015 RMK A01 T02870085  RH  029%=      5-min Rain = 0
KGGS 110000Z 09005KT 29/08 A3015 RMK A01 T02860084  RH  029%=      5-min Rain = 0
KGGS 110005Z 10005KT 29/09 A3015 RMK A01 T02850086  RH  030%=      5-min Rain = 0
KGGS 110010Z 11003KT 28/09 A3015 RMK A01 T02830087  RH  030%=      5-min Rain = 0
KGGS 110015Z 09004G10KT 28/09 A3015 RMK A01 T02820087  RH  030%=      5-min Rain = 0
KGGS 110020Z 10005KT 28/09 A3015 RMK A01 T02800087  RH  031%=      5-min Rain = 0
KGGS 110025Z 11004KT 28/09 A3015 RMK A01 T02780088  RH  031%=      5-min Rain = 0
KGGS 110030Z 11004KT 28/09 A3015 RMK A01 T02750090  RH  032%=      5-min Rain = 0
KGGS 110035Z 10004KT 27/09 A3015 RMK A01 T02720090  RH  033%=      5-min Rain = 0
KGGS 110040Z 11004KT 27/09 A3015 RMK A01 T02680090  RH  034%=      5-min Rain = 0
KGGS 110045Z 10005KT 27/09 A3015 RMK A01 T02650090  RH  034%=      5-min Rain = 0
KGGS 110050Z 11005KT 26/09 A3015 RMK A01 T02630089  RH  034%=      5-min Rain = 0
KGGS 110055Z 11005KT 26/09 A3015 RMK A01 T02600089  RH  035%=      5-min Rain = 0
KGGS 110100Z 11005KT 26/09 A3015 RMK A01 T02560088  RH  036%=      5-min Rain = 0
KGGS 110105Z 10005KT 25/09 A3015 RMK A01 T02530088  RH  036%=      5-min Rain = 0
KGGS 110110Z 10005KT 25/09 A3015 RMK A01 T02500087  RH  037%=      5-min Rain = 0
KGGS 110115Z 10005KT 25/09 A3015 RMK A01 T02480087  RH  037%=      5-min Rain = 0
KGGS 110120Z 10005KT 25/09 A3015 RMK A01 T02470087  RH  037%=      5-min Rain = 0
KGGS 110125Z 10005KT 24/09 A3015 RMK A01 T02440087  RH  038%=      5-min Rain = 0
KGGS 110130Z 10005KT 24/09 A3015 RMK A01 T02430086  RH  038%=      5-min Rain = 0
KGGS 110135Z 10006KT 25/08 A3015 RMK A01 T02450083  RH  037%=      5-min Rain = 0
KGGS 110140Z 10005KT 25/08 A3015 RMK A01 T02450082  RH  036%=      5-min Rain = 0
KGGS 110145Z 11006KT 24/08 A3015 RMK A01 T02420081  RH  037%=      5-min Rain = 0
KGGS 110150Z 11006KT 24/08 A3015 RMK A01 T02420080  RH  037%=      5-min Rain = 0
KGGS 110155Z 11005KT 24/08 A3015 RMK A01 T02400079  RH  037%=      5-min Rain = 0
KGGS 110200Z 11005KT 24/08 A3016 RMK A01 T02400079  RH  037%=      5-min Rain = 0
KGGS 110205Z 11006KT 24/08 A3016 RMK A01 T02400079  RH  037%=      5-min Rain = 0
KGGS 110210Z 11006KT 24/08 A3016 RMK A01 T02410080  RH  037%=      5-min Rain = 0
KGGS 110215Z 10005KT 24/08 A3017 RMK A01 T02400080  RH  037%=      5-min Rain = 0
KGGS 110220Z 10005KT 24/08 A3017 RMK A01 T02370080  RH  038%=      5-min Rain = 0
KGGS 110225Z 11005KT 24/08 A3017 RMK A01 T02350080  RH  038%=      5-min Rain = 0
KGGS 110230Z 11006KT 23/08 A3017 RMK A01 T02330080  RH  039%=      5-min Rain = 0
KGGS 110235Z 11005KT 23/08 A3018 RMK A01 T02310080  RH  039%=      5-min Rain = 0
KGGS 110240Z 12005KT 23/08 A3018 RMK A01 T02290081  RH  040%=      5-min Rain = 0
KGGS 110245Z 11005KT 23/08 A3018 RMK A01 T02270081  RH  040%=      5-min Rain = 0
KGGS 110250Z 11005KT 23/08 A3018 RMK A01 T02260081  RH  041%=      5-min Rain = 0
KGGS 110255Z 10005KT 23/08 A3018 RMK A01 T02300082  RH  040%=      5-min Rain = 0
KGGS 110300Z 09006KT 23/08 A3018 RMK A01 T02300082  RH  040%=      5-min Rain = 0
KGGS 110305Z 09006KT 23/08 A3018 RMK A01 T02290082  RH  040%=      5-min Rain = 0
KGGS 110310Z 09005KT 23/08 A3018 RMK A01 T02260082  RH  041%=      5-min Rain = 0
KGGS 110315Z 10005KT 22/08 A3019 RMK A01 T02220082  RH  042%=      5-min Rain = 0
KGGS 110320Z 11005KT 22/08 A3019 RMK A01 T02200082  RH  042%=      5-min Rain = 0
KGGS 110325Z 11004KT 22/08 A3019 RMK A01 T02170082  RH  043%=      5-min Rain = 0
KGGS 110330Z 11004KT 21/08 A3019 RMK A01 T02140083  RH  044%=      5-min Rain = 0
KGGS 110335Z 11004KT 21/08 A3019 RMK A01 T02130083  RH  044%=      5-min Rain = 0
KGGS 110340Z 11004KT 21/08 A3019 RMK A01 T02140084  RH  044%=      5-min Rain = 0
KGGS 110345Z 11004KT 21/08 A3019 RMK A01 T02110084  RH  045%=      5-min Rain = 0
KGGS 110350Z 11005KT 21/08 A3019 RMK A01 T02100084  RH  046%=      5-min Rain = 0
KGGS 110355Z 11005KT 21/08 A3019 RMK A01 T02100084  RH  045%=      5-min Rain = 0
KGGS 110400Z 10005KT 21/08 A3019 RMK A01 T02110083  RH  045%=      5-min Rain = 0
KGGS 110405Z 10004KT 21/08 A3019 RMK A01 T02080083  RH  046%=      5-min Rain = 0
KGGS 110410Z 09005KT 21/08 A3019 RMK A01 T02050083  RH  047%=      5-min Rain = 0
KGGS 110415Z 09005KT 20/08 A3019 RMK A01 T02040083  RH  047%=      5-min Rain = 0
KGGS 110420Z 10004KT 20/08 A3019 RMK A01 T02030083  RH  047%=      5-min Rain = 0
KGGS 110425Z 10004KT 20/08 A3019 RMK A01 T02010083  RH  048%=      5-min Rain = 0
KGGS 110430Z 09004KT 20/08 A3019 RMK A01 T01990083  RH  048%=      5-min Rain = 0
KGGS 110435Z 09004KT 20/08 A302 RMK A01 T01980083  RH  049%=      5-min Rain = 0
KGGS 110440Z 09005KT 20/08 A302 RMK A01 T01960083  RH  049%=      5-min Rain = 0
KGGS 110445Z 09004KT 20/08 A302 RMK A01 T01950083  RH  050%=      5-min Rain = 0
KGGS 110450Z 10005KT 20/08 A302 RMK A01 T01950083  RH  050%=      5-min Rain = 0
KGGS 110455Z 10005KT 19/08 A302 RMK A01 T01930083  RH  050%=      5-min Rain = 0

Page generated in 0.0092 seconds.